»·PEaware :: N1503S KRHV-KMRY

N1503S :: KRHV-KMRY

FLIGHT INFORMATION

Flight Status: Arrived
Operator: Privately registered:
United States
More flights under this callsign
Pilot: Ken S. (32)
Aircraft: BEECH AIRCRAFT BONANZA
(BE35)
More flights by this aircraft type
Origin: KRHV Reid-Hillview
United States
Destination: KMRY Monterey Peninsula
United States
More flights between these airports :: More routes between these airports
Route: SJC HENCE SNS
File this flight plan on PilotEdge
Remarks: ILS RWY 10R / V /
Altitude:
(Current/Filed)
5,000ft
Speed:
(Current/Filed)
150kts
Departed: 18-Mar-12 10:34 AM
Arrived: 18-Mar-12 11:17 AM
Distance/Time
Traveled:
44nm/0:43
Distance/Time
To Go:
Arrived

Flight Plot

Page will automatically refresh every two minutes.


Map Options




Map Legend


Flown Route
Filed Route
Departure Airport
Arrival Airport
Navaid (VOR, NDB)
Fix

Horizontal Profiles

Position Reports

Time Latitude Longitude Heading Altitude Ground
Speed
18-Mar-12 10:20 37.337090 -121.820594 322 135ft 0kts
18-Mar-12 10:21 37.337090 -121.820594 322 135ft 0kts
18-Mar-12 10:22 37.337090 -121.820594 322 135ft 0kts
18-Mar-12 10:23 37.337090 -121.820594 322 135ft 0kts
18-Mar-12 10:24 37.337090 -121.820594 322 135ft 0kts
18-Mar-12 10:25 37.337090 -121.820594 322 135ft 0kts
18-Mar-12 10:26 37.337090 -121.820594 322 135ft 0kts
18-Mar-12 10:27 37.337090 -121.820594 322 135ft 0kts
18-Mar-12 10:28 37.336881 -121.821032 233 135ft 0kts
18-Mar-12 10:29 37.335954 -121.821441 144 135ft 14kts
18-Mar-12 10:30 37.330428 -121.816221 124 135ft 18kts
18-Mar-12 10:31 37.330199 -121.815909 135 135ft 0kts
18-Mar-12 10:32 37.330211 -121.816675 320 135ft 14kts
18-Mar-12 10:33 37.346192 -121.831861 306 861ft 90kts
18-Mar-12 10:34 37.361829 -121.859441 295 1897ft 103kts
18-Mar-12 10:35 37.358824 -121.887389 193 2783ft 125kts
18-Mar-12 10:36 37.321476 -121.889790 154 2968ft 168kts
18-Mar-12 10:37 37.289084 -121.845179 143 2876ft 171kts
18-Mar-12 10:38 37.257953 -121.811160 143 2965ft 167kts
18-Mar-12 10:39 37.223684 -121.775442 147 3572ft 163kts
18-Mar-12 10:40 37.190022 -121.736078 138 4127ft 159kts
18-Mar-12 10:41 37.160283 -121.694410 141 4661ft 164kts
18-Mar-12 10:42 37.124009 -121.660767 144 4982ft 166kts
18-Mar-12 10:43 37.090438 -121.619093 147 5059ft 167kts
18-Mar-12 10:44 37.052972 -121.580880 138 5004ft 174kts
18-Mar-12 10:45 37.016145 -121.540507 149 4910ft 175kts
18-Mar-12 10:46 36.978344 -121.502555 141 4924ft 175kts
18-Mar-12 10:47 36.944566 -121.458176 135 4904ft 176kts
18-Mar-12 10:48 36.905782 -121.434358 201 4832ft 159kts
18-Mar-12 10:49 36.865856 -121.455483 206 4951ft 155kts
18-Mar-12 10:50 36.822420 -121.464886 195 5060ft 160kts
18-Mar-12 10:51 36.780759 -121.479803 215 5037ft 163kts
18-Mar-12 10:52 36.743604 -121.509454 226 5037ft 156kts
18-Mar-12 10:53 36.711669 -121.547803 234 4976ft 155kts
18-Mar-12 10:54 36.677779 -121.585264 223 5070ft 165kts
18-Mar-12 10:55 36.650124 -121.618498 249 4855ft 172kts
18-Mar-12 10:56 36.650399 -121.673052 272 4773ft 145kts
18-Mar-12 10:57 36.637787 -121.731826 253 4457ft 153kts
18-Mar-12 10:58 36.632879 -121.775350 268 3786ft 157kts
18-Mar-12 10:59 36.625540 -121.828623 259 3005ft 151kts
18-Mar-12 11:01 36.609916 -121.919121 269 2596ft 117kts
18-Mar-12 11:02 36.617433 -121.955781 294 2603ft 113kts
18-Mar-12 11:04 36.636415 -122.027244 291 2273ft 108kts
18-Mar-12 11:05 36.627956 -122.057032 241 2137ft 112kts
18-Mar-12 11:06 36.616703 -122.085716 297 2099ft 104kts
18-Mar-12 11:07 36.630267 -122.067902 95 2250ft 118kts
18-Mar-12 11:08 36.640603 -122.027781 71 2178ft 122kts
18-Mar-12 11:09 36.634482 -121.984637 120 1968ft 135kts
18-Mar-12 11:10 36.620754 -121.942063 118 1746ft 139kts
18-Mar-12 11:11 36.605379 -121.899539 99 1259ft 134kts
18-Mar-12 11:12 36.601030 -121.857365 50 1010ft 113kts
18-Mar-12 11:13 36.594566 -121.818264 112 1012ft 101kts
18-Mar-12 11:14 36.578662 -121.818934 279 683ft 76kts
18-Mar-12 11:15 36.586588 -121.843237 292 270ft 60kts
18-Mar-12 11:16 36.591345 -121.850974 72 259ft 15kts
18-Mar-12 11:17 36.592085 -121.849458 30 259ft 0kts
18-Mar-12 11:18 36.592085 -121.849458 30 259ft 0kts
18-Mar-12 11:19 36.592085 -121.849458 30 259ft 0kts
18-Mar-12 11:20 36.592085 -121.849458 30 259ft 0kts
18-Mar-12 11:21 36.592085 -121.849458 30 259ft 0kts
18-Mar-12 11:22 36.592085 -121.849458 30 259ft 0kts
18-Mar-12 11:23 36.592085 -121.849458 30 259ft 0kts
18-Mar-12 11:24 36.592085 -121.849458 30 259ft 0kts
18-Mar-12 11:25 36.592085 -121.849458 30 259ft 0kts
18-Mar-12 11:26 36.592085 -121.849458 30 259ft 0kts
18-Mar-12 11:27 36.592085 -121.849458 30 259ft 0kts
18-Mar-12 11:28 36.592085 -121.849458 30 259ft 0kts
18-Mar-12 11:29 36.592085 -121.849458 30 259ft 0kts
18-Mar-12 11:30 36.592085 -121.849458 30 259ft 0kts

Navigation Log

Ident Type
Flight plan parsing failed, navigation log unavailable